Terminal Aerodrome Forecast
Issued by NWS Salt Lake City, UT

Home | Current Version | Previous Version | Text Only | Print | Product List | Glossary On
Versions: 1 2 3 4 5 6 7 8 9 10 11 12 13 14 15 16 17 18 19 20 21 22 23 24 25 26 27 28 29 30 31 32 33 34 35 36 37 38 39 40 41 42 43 44 45 46 47 48 49 50
730
FTUS45 KSLC 301545 AAB
TAFSLC
TAF AMD
KSLC 301545Z 3016/3118 29014G21KT P6SM -SHRA SCT040 BKN060
     FM301630 17015G24KT P6SM VCSH SCT040 BKN070
     FM302200 32012G24KT 6SM -RA SCT020 BKN040 OVC060
     FM310100 33013KT 6SM -RA BR SCT015 BKN030 OVC050
     FM310700 34009KT P6SM VCSH SCT020 BKN040=

USA.gov is the U.S. government's official web portal to all federal, state and local government web resources and services.